sensor_id;sensor_type;location;lat;lon;timestamp;P1;durP1;ratioP1;P2;durP2;ratioP2
23868;SDS011;12115;47.128;15.422;2022-12-18T00:00:45;7.32;;;4.95;;
23868;SDS011;12115;47.128;15.422;2022-12-18T00:03:18;8.32;;;4.40;;
23868;SDS011;12115;47.128;15.422;2022-12-18T00:06:14;8.77;;;4.95;;
23868;SDS011;12115;47.128;15.422;2022-12-18T00:08:48;6.78;;;4.90;;
23868;SDS011;12115;47.128;15.422;2022-12-18T00:11:21;7.63;;;4.70;;
23868;SDS011;12115;47.128;15.422;2022-12-18T00:13:55;4.97;;;4.10;;
23868;SDS011;12115;47.128;15.422;2022-12-18T00:16:27;6.22;;;4.30;;
23868;SDS011;12115;47.128;15.422;2022-12-18T00:18:59;7.75;;;5.03;;
23868;SDS011;12115;47.128;15.422;2022-12-18T00:21:35;7.75;;;4.63;;
23868;SDS011;12115;47.128;15.422;2022-12-18T00:24:03;7.15;;;4.57;;
23868;SDS011;12115;47.128;15.422;2022-12-18T00:26:39;8.15;;;5.03;;
23868;SDS011;12115;47.128;15.422;2022-12-18T00:29:13;6.68;;;4.20;;
23868;SDS011;12115;47.128;15.422;2022-12-18T00:31:42;7.78;;;4.32;;
23868;SDS011;12115;47.128;15.422;2022-12-18T00:34:14;6.80;;;4.50;;
23868;SDS011;12115;47.128;15.422;2022-12-18T00:36:50;7.88;;;4.60;;
23868;SDS011;12115;47.128;15.422;2022-12-18T00:39:43;7.28;;;4.15;;
23868;SDS011;12115;47.128;15.422;2022-12-18T00:42:24;5.95;;;3.90;;
23868;SDS011;12115;47.128;15.422;2022-12-18T00:45:18;6.45;;;4.07;;
23868;SDS011;12115;47.128;15.422;2022-12-18T00:47:51;6.07;;;3.95;;
23868;SDS011;12115;47.128;15.422;2022-12-18T00:50:22;6.50;;;4.03;;
23868;SDS011;12115;47.128;15.422;2022-12-18T00:53:02;9.25;;;4.90;;
23868;SDS011;12115;47.128;15.422;2022-12-18T00:55:33;5.57;;;3.72;;
23868;SDS011;12115;47.128;15.422;2022-12-18T00:58:15;5.85;;;3.88;;
23868;SDS011;12115;47.128;15.422;2022-12-18T01:00:55;6.90;;;4.32;;
23868;SDS011;12115;47.128;15.422;2022-12-18T01:03:30;6.85;;;3.55;;
23868;SDS011;12115;47.128;15.422;2022-12-18T01:06:12;6.65;;;4.15;;
23868;SDS011;12115;47.128;15.422;2022-12-18T01:08:44;6.30;;;4.07;;
23868;SDS011;12115;47.128;15.422;2022-12-18T01:11:22;7.28;;;4.00;;
23868;SDS011;12115;47.128;15.422;2022-12-18T01:14:00;6.18;;;3.90;;
23868;SDS011;12115;47.128;15.422;2022-12-18T01:16:34;4.45;;;3.30;;
23868;SDS011;12115;47.128;15.422;2022-12-18T01:19:11;6.93;;;4.53;;
23868;SDS011;12115;47.128;15.422;2022-12-18T01:21:51;5.40;;;3.55;;
23868;SDS011;12115;47.128;15.422;2022-12-18T01:24:24;7.97;;;3.80;;
23868;SDS011;12115;47.128;15.422;2022-12-18T01:27:09;5.88;;;3.30;;
23868;SDS011;12115;47.128;15.422;2022-12-18T01:29:54;7.57;;;4.18;;
23868;SDS011;12115;47.128;15.422;2022-12-18T01:32:36;6.80;;;4.45;;
23868;SDS011;12115;47.128;15.422;2022-12-18T01:35:19;7.32;;;4.38;;
23868;SDS011;12115;47.128;15.422;2022-12-18T01:38:06;5.15;;;3.75;;
23868;SDS011;12115;47.128;15.422;2022-12-18T01:41:01;5.13;;;3.60;;
23868;SDS011;12115;47.128;15.422;2022-12-18T01:46:21;7.68;;;3.75;;
23868;SDS011;12115;47.128;15.422;2022-12-18T01:49:01;9.80;;;4.57;;
23868;SDS011;12115;47.128;15.422;2022-12-18T01:52:05;6.70;;;3.97;;
23868;SDS011;12115;47.128;15.422;2022-12-18T01:57:30;7.72;;;3.60;;
23868;SDS011;12115;47.128;15.422;2022-12-18T02:03:06;6.05;;;3.85;;
23868;SDS011;12115;47.128;15.422;2022-12-18T02:09:18;4.68;;;2.67;;
23868;SDS011;12115;47.128;15.422;2022-12-18T02:12:07;5.72;;;3.90;;
23868;SDS011;12115;47.128;15.422;2022-12-18T02:15:00;5.00;;;3.40;;
23868;SDS011;12115;47.128;15.422;2022-12-18T02:26:55;5.93;;;3.45;;
23868;SDS011;12115;47.128;15.422;2022-12-18T02:29:50;5.20;;;3.03;;
23868;SDS011;12115;47.128;15.422;2022-12-18T02:32:30;5.25;;;3.30;;
23868;SDS011;12115;47.128;15.422;2022-12-18T02:35:07;6.90;;;3.58;;
23868;SDS011;12115;47.128;15.422;2022-12-18T02:38:03;4.72;;;3.70;;
23868;SDS011;12115;47.128;15.422;2022-12-18T02:40:47;5.53;;;3.13;;
23868;SDS011;12115;47.128;15.422;2022-12-18T02:43:22;4.72;;;3.30;;
23868;SDS011;12115;47.128;15.422;2022-12-18T02:46:00;5.50;;;3.45;;
23868;SDS011;12115;47.128;15.422;2022-12-18T02:48:54;4.63;;;3.15;;
23868;SDS011;12115;47.128;15.422;2022-12-18T02:51:53;5.22;;;3.33;;
23868;SDS011;12115;47.128;15.422;2022-12-18T02:57:29;4.55;;;3.13;;
23868;SDS011;12115;47.128;15.422;2022-12-18T03:00:24;5.97;;;3.22;;
23868;SDS011;12115;47.128;15.422;2022-12-18T03:09:21;6.70;;;3.83;;
23868;SDS011;12115;47.128;15.422;2022-12-18T03:12:10;5.97;;;3.17;;
23868;SDS011;12115;47.128;15.422;2022-12-18T03:17:35;5.40;;;3.35;;
23868;SDS011;12115;47.128;15.422;2022-12-18T03:20:29;5.72;;;3.30;;
23868;SDS011;12115;47.128;15.422;2022-12-18T03:23:17;4.43;;;2.97;;
23868;SDS011;12115;47.128;15.422;2022-12-18T03:25:56;4.60;;;2.88;;
23868;SDS011;12115;47.128;15.422;2022-12-18T03:28:38;5.55;;;3.45;;
23868;SDS011;12115;47.128;15.422;2022-12-18T03:31:26;4.75;;;3.40;;
23868;SDS011;12115;47.128;15.422;2022-12-18T03:34:14;5.65;;;3.15;;
23868;SDS011;12115;47.128;15.422;2022-12-18T03:36:46;9.25;;;3.50;;
23868;SDS011;12115;47.128;15.422;2022-12-18T03:39:17;5.72;;;3.30;;
23868;SDS011;12115;47.128;15.422;2022-12-18T03:54:26;5.60;;;3.38;;
23868;SDS011;12115;47.128;15.422;2022-12-18T03:57:16;4.10;;;2.70;;
23868;SDS011;12115;47.128;15.422;2022-12-18T04:00:05;5.70;;;3.63;;
23868;SDS011;12115;47.128;15.422;2022-12-18T04:03:10;4.53;;;3.22;;
23868;SDS011;12115;47.128;15.422;2022-12-18T04:05:54;5.18;;;3.67;;
23868;SDS011;12115;47.128;15.422;2022-12-18T04:08:42;5.32;;;3.08;;
23868;SDS011;12115;47.128;15.422;2022-12-18T04:11:22;5.93;;;3.42;;
23868;SDS011;12115;47.128;15.422;2022-12-18T04:14:01;4.65;;;3.35;;
23868;SDS011;12115;47.128;15.422;2022-12-18T04:16:49;5.20;;;3.53;;
23868;SDS011;12115;47.128;15.422;2022-12-18T04:19:26;4.90;;;3.40;;
23868;SDS011;12115;47.128;15.422;2022-12-18T04:22:02;7.53;;;3.60;;
23868;SDS011;12115;47.128;15.422;2022-12-18T04:24:41;4.45;;;3.05;;
23868;SDS011;12115;47.128;15.422;2022-12-18T04:27:21;5.88;;;3.35;;
23868;SDS011;12115;47.128;15.422;2022-12-18T04:30:05;5.47;;;3.50;;
23868;SDS011;12115;47.128;15.422;2022-12-18T04:32:47;5.38;;;3.30;;
23868;SDS011;12115;47.128;15.422;2022-12-18T04:35:24;5.47;;;3.58;;
23868;SDS011;12115;47.128;15.422;2022-12-18T04:37:52;6.20;;;3.53;;
23868;SDS011;12115;47.128;15.422;2022-12-18T04:40:26;5.55;;;3.47;;
23868;SDS011;12115;47.128;15.422;2022-12-18T04:43:01;5.30;;;3.60;;
23868;SDS011;12115;47.128;15.422;2022-12-18T04:45:44;4.57;;;3.30;;
23868;SDS011;12115;47.128;15.422;2022-12-18T04:48:18;6.60;;;3.75;;
23868;SDS011;12115;47.128;15.422;2022-12-18T04:51:13;4.95;;;3.50;;
23868;SDS011;12115;47.128;15.422;2022-12-18T04:53:45;5.95;;;4.00;;
23868;SDS011;12115;47.128;15.422;2022-12-18T04:56:21;6.03;;;4.05;;
23868;SDS011;12115;47.128;15.422;2022-12-18T04:58:55;5.70;;;4.03;;
23868;SDS011;12115;47.128;15.422;2022-12-18T05:01:36;6.47;;;3.35;;
23868;SDS011;12115;47.128;15.422;2022-12-18T05:07:21;8.07;;;4.25;;
23868;SDS011;12115;47.128;15.422;2022-12-18T05:10:03;6.18;;;3.88;;
23868;SDS011;12115;47.128;15.422;2022-12-18T05:12:37;5.00;;;3.43;;
23868;SDS011;12115;47.128;15.422;2022-12-18T05:15:29;6.03;;;3.92;;
23868;SDS011;12115;47.128;15.422;2022-12-18T05:18:02;6.45;;;4.22;;
23868;SDS011;12115;47.128;15.422;2022-12-18T05:20:46;5.80;;;3.72;;
23868;SDS011;12115;47.128;15.422;2022-12-18T05:23:14;5.60;;;3.60;;
23868;SDS011;12115;47.128;15.422;2022-12-18T05:26:02;7.30;;;4.13;;
23868;SDS011;12115;47.128;15.422;2022-12-18T05:28:40;5.45;;;3.85;;
23868;SDS011;12115;47.128;15.422;2022-12-18T05:31:18;7.78;;;4.05;;
23868;SDS011;12115;47.128;15.422;2022-12-18T05:34:09;7.18;;;3.78;;
23868;SDS011;12115;47.128;15.422;2022-12-18T05:36:42;5.38;;;3.22;;
23868;SDS011;12115;47.128;15.422;2022-12-18T05:39:14;5.30;;;3.58;;
23868;SDS011;12115;47.128;15.422;2022-12-18T05:41:53;6.20;;;4.10;;
23868;SDS011;12115;47.128;15.422;2022-12-18T05:44:23;7.22;;;4.50;;
23868;SDS011;12115;47.128;15.422;2022-12-18T05:46:54;6.00;;;3.78;;
23868;SDS011;12115;47.128;15.422;2022-12-18T05:49:26;6.57;;;3.90;;
23868;SDS011;12115;47.128;15.422;2022-12-18T05:51:56;6.93;;;4.43;;
23868;SDS011;12115;47.128;15.422;2022-12-18T05:54:36;6.53;;;4.40;;
23868;SDS011;12115;47.128;15.422;2022-12-18T05:57:10;6.90;;;4.18;;
23868;SDS011;12115;47.128;15.422;2022-12-18T05:59:44;5.30;;;3.63;;
23868;SDS011;12115;47.128;15.422;2022-12-18T06:02:17;7.55;;;4.07;;
23868;SDS011;12115;47.128;15.422;2022-12-18T06:04:49;6.10;;;4.20;;
23868;SDS011;12115;47.128;15.422;2022-12-18T06:07:42;7.00;;;4.53;;
23868;SDS011;12115;47.128;15.422;2022-12-18T06:10:16;9.00;;;4.70;;
23868;SDS011;12115;47.128;15.422;2022-12-18T06:12:49;9.07;;;5.18;;
23868;SDS011;12115;47.128;15.422;2022-12-18T06:15:20;9.93;;;5.65;;
23868;SDS011;12115;47.128;15.422;2022-12-18T06:17:50;6.10;;;3.85;;
23868;SDS011;12115;47.128;15.422;2022-12-18T06:20:34;7.55;;;4.90;;
23868;SDS011;12115;47.128;15.422;2022-12-18T06:23:11;6.72;;;4.32;;
23868;SDS011;12115;47.128;15.422;2022-12-18T06:26:02;7.65;;;4.47;;
23868;SDS011;12115;47.128;15.422;2022-12-18T06:28:39;10.25;;;5.47;;
23868;SDS011;12115;47.128;15.422;2022-12-18T06:31:10;9.07;;;5.90;;
23868;SDS011;12115;47.128;15.422;2022-12-18T06:33:45;10.88;;;5.78;;
23868;SDS011;12115;47.128;15.422;2022-12-18T06:36:19;9.18;;;5.10;;
23868;SDS011;12115;47.128;15.422;2022-12-18T06:39:04;9.90;;;5.53;;
23868;SDS011;12115;47.128;15.422;2022-12-18T06:41:39;9.13;;;5.47;;
23868;SDS011;12115;47.128;15.422;2022-12-18T06:44:12;11.38;;;5.90;;
23868;SDS011;12115;47.128;15.422;2022-12-18T06:46:51;8.05;;;5.13;;
23868;SDS011;12115;47.128;15.422;2022-12-18T06:49:24;8.82;;;5.20;;
23868;SDS011;12115;47.128;15.422;2022-12-18T06:52:00;10.27;;;5.53;;
23868;SDS011;12115;47.128;15.422;2022-12-18T06:54:28;7.82;;;5.40;;
23868;SDS011;12115;47.128;15.422;2022-12-18T06:57:01;8.15;;;4.88;;
23868;SDS011;12115;47.128;15.422;2022-12-18T06:59:31;9.50;;;5.72;;
23868;SDS011;12115;47.128;15.422;2022-12-18T07:02:03;11.05;;;7.20;;
23868;SDS011;12115;47.128;15.422;2022-12-18T07:04:35;10.13;;;6.47;;
23868;SDS011;12115;47.128;15.422;2022-12-18T07:07:11;9.57;;;5.87;;
23868;SDS011;12115;47.128;15.422;2022-12-18T07:10:15;10.57;;;6.63;;
23868;SDS011;12115;47.128;15.422;2022-12-18T07:12:48;8.20;;;5.43;;
23868;SDS011;12115;47.128;15.422;2022-12-18T07:15:24;9.63;;;6.63;;
23868;SDS011;12115;47.128;15.422;2022-12-18T07:18:06;7.38;;;4.70;;
23868;SDS011;12115;47.128;15.422;2022-12-18T07:21:17;8.25;;;5.47;;
23868;SDS011;12115;47.128;15.422;2022-12-18T07:23:52;9.55;;;6.10;;
23868;SDS011;12115;47.128;15.422;2022-12-18T07:26:38;8.40;;;5.72;;
23868;SDS011;12115;47.128;15.422;2022-12-18T07:29:14;11.05;;;7.15;;
23868;SDS011;12115;47.128;15.422;2022-12-18T07:31:41;11.05;;;6.75;;
23868;SDS011;12115;47.128;15.422;2022-12-18T07:34:14;11.65;;;7.38;;
23868;SDS011;12115;47.128;15.422;2022-12-18T07:36:58;14.32;;;8.40;;
23868;SDS011;12115;47.128;15.422;2022-12-18T07:39:36;14.20;;;8.38;;
23868;SDS011;12115;47.128;15.422;2022-12-18T07:42:04;12.45;;;7.43;;
23868;SDS011;12115;47.128;15.422;2022-12-18T07:45:08;9.40;;;6.20;;
23868;SDS011;12115;47.128;15.422;2022-12-18T07:47:39;12.68;;;7.60;;
23868;SDS011;12115;47.128;15.422;2022-12-18T07:50:08;12.43;;;8.88;;
23868;SDS011;12115;47.128;15.422;2022-12-18T07:52:40;16.17;;;10.68;;
23868;SDS011;12115;47.128;15.422;2022-12-18T07:55:11;18.77;;;10.27;;
23868;SDS011;12115;47.128;15.422;2022-12-18T07:57:50;18.05;;;10.13;;
23868;SDS011;12115;47.128;15.422;2022-12-18T08:00:23;18.52;;;11.32;;
23868;SDS011;12115;47.128;15.422;2022-12-18T08:03:14;19.73;;;10.32;;
23868;SDS011;12115;47.128;15.422;2022-12-18T08:05:49;17.27;;;10.40;;
23868;SDS011;12115;47.128;15.422;2022-12-18T08:10:53;15.60;;;8.93;;
23868;SDS011;12115;47.128;15.422;2022-12-18T08:13:29;14.55;;;9.68;;
23868;SDS011;12115;47.128;15.422;2022-12-18T08:16:01;14.73;;;9.75;;
23868;SDS011;12115;47.128;15.422;2022-12-18T08:18:37;21.88;;;11.98;;
23868;SDS011;12115;47.128;15.422;2022-12-18T08:21:13;24.10;;;13.07;;
23868;SDS011;12115;47.128;15.422;2022-12-18T08:23:52;21.13;;;13.48;;
23868;SDS011;12115;47.128;15.422;2022-12-18T08:26:26;20.27;;;11.82;;
23868;SDS011;12115;47.128;15.422;2022-12-18T08:29:08;18.23;;;8.35;;
23868;SDS011;12115;47.128;15.422;2022-12-18T08:31:46;13.55;;;9.48;;
23868;SDS011;12115;47.128;15.422;2022-12-18T08:34:24;18.70;;;10.98;;
23868;SDS011;12115;47.128;15.422;2022-12-18T08:36:58;13.05;;;8.07;;
23868;SDS011;12115;47.128;15.422;2022-12-18T08:39:31;10.48;;;7.07;;
23868;SDS011;12115;47.128;15.422;2022-12-18T08:41:59;13.60;;;7.18;;
23868;SDS011;12115;47.128;15.422;2022-12-18T08:44:50;10.60;;;6.53;;
23868;SDS011;12115;47.128;15.422;2022-12-18T08:47:23;10.57;;;6.20;;
23868;SDS011;12115;47.128;15.422;2022-12-18T08:49:55;10.05;;;6.50;;
23868;SDS011;12115;47.128;15.422;2022-12-18T08:52:42;10.63;;;6.00;;
23868;SDS011;12115;47.128;15.422;2022-12-18T08:55:21;10.13;;;7.28;;
23868;SDS011;12115;47.128;15.422;2022-12-18T08:58:07;11.50;;;8.73;;
23868;SDS011;12115;47.128;15.422;2022-12-18T09:00:35;13.95;;;8.60;;
23868;SDS011;12115;47.128;15.422;2022-12-18T09:03:14;11.95;;;8.20;;
23868;SDS011;12115;47.128;15.422;2022-12-18T09:05:53;11.90;;;7.30;;
23868;SDS011;12115;47.128;15.422;2022-12-18T09:08:25;10.38;;;7.13;;
23868;SDS011;12115;47.128;15.422;2022-12-18T09:13:44;11.48;;;7.38;;
23868;SDS011;12115;47.128;15.422;2022-12-18T09:16:14;11.00;;;7.22;;
23868;SDS011;12115;47.128;15.422;2022-12-18T09:18:42;14.98;;;8.63;;
23868;SDS011;12115;47.128;15.422;2022-12-18T09:21:18;13.90;;;9.07;;
23868;SDS011;12115;47.128;15.422;2022-12-18T09:23:57;15.32;;;9.13;;
23868;SDS011;12115;47.128;15.422;2022-12-18T09:26:27;13.40;;;8.57;;
23868;SDS011;12115;47.128;15.422;2022-12-18T09:28:57;13.50;;;9.32;;
23868;SDS011;12115;47.128;15.422;2022-12-18T09:31:25;17.15;;;12.00;;
23868;SDS011;12115;47.128;15.422;2022-12-18T09:33:58;14.27;;;8.82;;
23868;SDS011;12115;47.128;15.422;2022-12-18T09:36:26;13.98;;;9.27;;
23868;SDS011;12115;47.128;15.422;2022-12-18T09:39:00;13.43;;;8.50;;
23868;SDS011;12115;47.128;15.422;2022-12-18T09:41:39;12.60;;;8.07;;
23868;SDS011;12115;47.128;15.422;2022-12-18T09:50:13;10.25;;;7.85;;
23868;SDS011;12115;47.128;15.422;2022-12-18T09:52:58;14.77;;;7.60;;
23868;SDS011;12115;47.128;15.422;2022-12-18T09:55:45;10.85;;;8.02;;
23868;SDS011;12115;47.128;15.422;2022-12-18T09:58:26;9.48;;;6.88;;
23868;SDS011;12115;47.128;15.422;2022-12-18T10:00:59;9.90;;;7.10;;
23868;SDS011;12115;47.128;15.422;2022-12-18T10:03:29;9.50;;;6.15;;
23868;SDS011;12115;47.128;15.422;2022-12-18T10:06:02;7.80;;;6.00;;
23868;SDS011;12115;47.128;15.422;2022-12-18T10:14:12;10.70;;;6.43;;
23868;SDS011;12115;47.128;15.422;2022-12-18T10:16:57;11.98;;;7.40;;
23868;SDS011;12115;47.128;15.422;2022-12-18T10:23:05;12.05;;;7.72;;
23868;SDS011;12115;47.128;15.422;2022-12-18T10:25:53;12.00;;;7.10;;
23868;SDS011;12115;47.128;15.422;2022-12-18T10:28:32;10.45;;;7.63;;
23868;SDS011;12115;47.128;15.422;2022-12-18T10:31:05;9.98;;;6.45;;
23868;SDS011;12115;47.128;15.422;2022-12-18T10:33:40;11.07;;;7.85;;
23868;SDS011;12115;47.128;15.422;2022-12-18T10:36:16;12.38;;;8.70;;
23868;SDS011;12115;47.128;15.422;2022-12-18T10:38:52;13.32;;;9.80;;
23868;SDS011;12115;47.128;15.422;2022-12-18T10:41:26;14.80;;;10.85;;
23868;SDS011;12115;47.128;15.422;2022-12-18T10:44:20;14.30;;;10.30;;
23868;SDS011;12115;47.128;15.422;2022-12-18T10:47:02;17.45;;;11.73;;
23868;SDS011;12115;47.128;15.422;2022-12-18T10:49:42;18.55;;;13.10;;
23868;SDS011;12115;47.128;15.422;2022-12-18T10:52:23;18.20;;;13.13;;
23868;SDS011;12115;47.128;15.422;2022-12-18T10:54:58;17.92;;;13.20;;
23868;SDS011;12115;47.128;15.422;2022-12-18T10:57:36;23.95;;;14.68;;
23868;SDS011;12115;47.128;15.422;2022-12-18T11:00:26;21.38;;;14.35;;
23868;SDS011;12115;47.128;15.422;2022-12-18T11:02:57;18.20;;;13.02;;
23868;SDS011;12115;47.128;15.422;2022-12-18T11:05:31;17.33;;;12.00;;
23868;SDS011;12115;47.128;15.422;2022-12-18T11:08:03;19.05;;;12.07;;
23868;SDS011;12115;47.128;15.422;2022-12-18T11:10:54;18.42;;;12.20;;
23868;SDS011;12115;47.128;15.422;2022-12-18T11:13:27;17.73;;;13.05;;
23868;SDS011;12115;47.128;15.422;2022-12-18T11:16:17;19.05;;;13.10;;
23868;SDS011;12115;47.128;15.422;2022-12-18T11:19:06;20.33;;;13.60;;
23868;SDS011;12115;47.128;15.422;2022-12-18T11:21:50;21.70;;;13.90;;
23868;SDS011;12115;47.128;15.422;2022-12-18T11:27:15;18.80;;;13.50;;
23868;SDS011;12115;47.128;15.422;2022-12-18T11:30:06;20.27;;;13.85;;
23868;SDS011;12115;47.128;15.422;2022-12-18T11:35:53;22.42;;;14.52;;
23868;SDS011;12115;47.128;15.422;2022-12-18T11:41:29;21.42;;;14.63;;
23868;SDS011;12115;47.128;15.422;2022-12-18T11:47:59;27.52;;;16.27;;
23868;SDS011;12115;47.128;15.422;2022-12-18T11:50:57;24.45;;;16.08;;
23868;SDS011;12115;47.128;15.422;2022-12-18T11:53:29;21.58;;;14.82;;
23868;SDS011;12115;47.128;15.422;2022-12-18T12:07:51;26.77;;;16.63;;
23868;SDS011;12115;47.128;15.422;2022-12-18T12:27:09;28.08;;;17.77;;
23868;SDS011;12115;47.128;15.422;2022-12-18T12:33:03;24.90;;;16.98;;
23868;SDS011;12115;47.128;15.422;2022-12-18T12:38:53;23.95;;;16.25;;
23868;SDS011;12115;47.128;15.422;2022-12-18T12:41:30;24.23;;;16.63;;
23868;SDS011;12115;47.128;15.422;2022-12-18T12:44:29;25.48;;;15.65;;
23868;SDS011;12115;47.128;15.422;2022-12-18T12:47:55;23.67;;;16.15;;
23868;SDS011;12115;47.128;15.422;2022-12-18T12:50:06;26.30;;;17.17;;
23868;SDS011;12115;47.128;15.422;2022-12-18T12:52:50;28.25;;;18.05;;
23868;SDS011;12115;47.128;15.422;2022-12-18T12:55:27;30.42;;;19.13;;
23868;SDS011;12115;47.128;15.422;2022-12-18T12:58:03;28.13;;;18.90;;
23868;SDS011;12115;47.128;15.422;2022-12-18T13:00:58;30.55;;;19.73;;
23868;SDS011;12115;47.128;15.422;2022-12-18T13:09:12;33.25;;;20.15;;
23868;SDS011;12115;47.128;15.422;2022-12-18T13:11:46;28.95;;;18.15;;
23868;SDS011;12115;47.128;15.422;2022-12-18T13:14:38;28.27;;;17.80;;
23868;SDS011;12115;47.128;15.422;2022-12-18T13:17:20;28.48;;;19.45;;
23868;SDS011;12115;47.128;15.422;2022-12-18T13:20:07;29.10;;;18.25;;
23868;SDS011;12115;47.128;15.422;2022-12-18T13:22:47;33.78;;;18.98;;
23868;SDS011;12115;47.128;15.422;2022-12-18T13:25:31;28.10;;;18.70;;
23868;SDS011;12115;47.128;15.422;2022-12-18T13:30:56;29.80;;;17.90;;
23868;SDS011;12115;47.128;15.422;2022-12-18T13:36:01;27.25;;;18.05;;
23868;SDS011;12115;47.128;15.422;2022-12-18T13:38:44;29.25;;;18.63;;
23868;SDS011;12115;47.128;15.422;2022-12-18T13:41:31;28.45;;;20.13;;
23868;SDS011;12115;47.128;15.422;2022-12-18T13:46:53;28.67;;;19.17;;
23868;SDS011;12115;47.128;15.422;2022-12-18T13:52:26;29.50;;;18.27;;
23868;SDS011;12115;47.128;15.422;2022-12-18T13:55:01;29.10;;;18.75;;
23868;SDS011;12115;47.128;15.422;2022-12-18T13:57:37;31.38;;;19.63;;
23868;SDS011;12115;47.128;15.422;2022-12-18T14:02:56;30.38;;;19.55;;
23868;SDS011;12115;47.128;15.422;2022-12-18T14:05:30;32.75;;;22.27;;
23868;SDS011;12115;47.128;15.422;2022-12-18T14:08:15;27.48;;;18.63;;
23868;SDS011;12115;47.128;15.422;2022-12-18T14:10:47;28.98;;;19.58;;
23868;SDS011;12115;47.128;15.422;2022-12-18T14:13:23;28.98;;;19.00;;
23868;SDS011;12115;47.128;15.422;2022-12-18T14:15:56;36.00;;;21.40;;
23868;SDS011;12115;47.128;15.422;2022-12-18T14:18:45;35.53;;;22.27;;
23868;SDS011;12115;47.128;15.422;2022-12-18T14:21:33;35.92;;;22.85;;
23868;SDS011;12115;47.128;15.422;2022-12-18T14:24:18;31.90;;;20.27;;
23868;SDS011;12115;47.128;15.422;2022-12-18T14:26:49;32.97;;;21.02;;
23868;SDS011;12115;47.128;15.422;2022-12-18T14:29:21;29.30;;;20.63;;
23868;SDS011;12115;47.128;15.422;2022-12-18T14:34:50;30.75;;;19.92;;
23868;SDS011;12115;47.128;15.422;2022-12-18T14:37:26;39.45;;;23.45;;
23868;SDS011;12115;47.128;15.422;2022-12-18T14:39:57;31.48;;;20.02;;
23868;SDS011;12115;47.128;15.422;2022-12-18T14:42:35;42.75;;;26.40;;
23868;SDS011;12115;47.128;15.422;2022-12-18T14:50:56;41.88;;;28.23;;
23868;SDS011;12115;47.128;15.422;2022-12-18T14:56:25;47.65;;;27.65;;
23868;SDS011;12115;47.128;15.422;2022-12-18T14:59:04;41.92;;;25.17;;
23868;SDS011;12115;47.128;15.422;2022-12-18T15:01:48;39.55;;;24.42;;
23868;SDS011;12115;47.128;15.422;2022-12-18T15:04:34;45.22;;;28.20;;
23868;SDS011;12115;47.128;15.422;2022-12-18T15:07:22;40.50;;;25.30;;
23868;SDS011;12115;47.128;15.422;2022-12-18T15:10:07;43.17;;;27.55;;
23868;SDS011;12115;47.128;15.422;2022-12-18T15:18:15;45.00;;;25.25;;
23868;SDS011;12115;47.128;15.422;2022-12-18T15:20:52;43.78;;;25.02;;
23868;SDS011;12115;47.128;15.422;2022-12-18T15:23:36;40.22;;;23.50;;
23868;SDS011;12115;47.128;15.422;2022-12-18T15:26:15;39.17;;;22.88;;
23868;SDS011;12115;47.128;15.422;2022-12-18T15:28:51;43.72;;;26.05;;
23868;SDS011;12115;47.128;15.422;2022-12-18T15:31:34;43.10;;;23.60;;
23868;SDS011;12115;47.128;15.422;2022-12-18T15:34:10;37.65;;;22.08;;
23868;SDS011;12115;47.128;15.422;2022-12-18T15:36:49;37.10;;;21.42;;
23868;SDS011;12115;47.128;15.422;2022-12-18T15:39:20;35.90;;;22.48;;
23868;SDS011;12115;47.128;15.422;2022-12-18T15:41:53;41.58;;;23.90;;
23868;SDS011;12115;47.128;15.422;2022-12-18T15:44:43;36.83;;;23.58;;
23868;SDS011;12115;47.128;15.422;2022-12-18T15:47:15;40.40;;;24.23;;
23868;SDS011;12115;47.128;15.422;2022-12-18T15:49:52;44.80;;;24.98;;
23868;SDS011;12115;47.128;15.422;2022-12-18T15:52:25;44.22;;;25.10;;
23868;SDS011;12115;47.128;15.422;2022-12-18T15:55:09;49.75;;;27.60;;
23868;SDS011;12115;47.128;15.422;2022-12-18T15:58:06;40.67;;;24.15;;
23868;SDS011;12115;47.128;15.422;2022-12-18T16:00:44;43.08;;;26.05;;
23868;SDS011;12115;47.128;15.422;2022-12-18T16:03:19;44.10;;;25.73;;
23868;SDS011;12115;47.128;15.422;2022-12-18T16:05:55;38.20;;;22.52;;
23868;SDS011;12115;47.128;15.422;2022-12-18T16:08:31;40.05;;;23.55;;
23868;SDS011;12115;47.128;15.422;2022-12-18T16:11:03;39.45;;;22.73;;
23868;SDS011;12115;47.128;15.422;2022-12-18T16:13:47;38.63;;;21.60;;
23868;SDS011;12115;47.128;15.422;2022-12-18T16:16:21;47.47;;;28.05;;
23868;SDS011;12115;47.128;15.422;2022-12-18T16:18:53;57.28;;;32.00;;
23868;SDS011;12115;47.128;15.422;2022-12-18T16:21:26;44.63;;;26.52;;
23868;SDS011;12115;47.128;15.422;2022-12-18T16:24:00;39.70;;;23.17;;
23868;SDS011;12115;47.128;15.422;2022-12-18T16:26:43;36.47;;;22.15;;
23868;SDS011;12115;47.128;15.422;2022-12-18T16:29:26;33.60;;;20.83;;
23868;SDS011;12115;47.128;15.422;2022-12-18T16:32:05;34.15;;;21.60;;
23868;SDS011;12115;47.128;15.422;2022-12-18T16:34:40;35.40;;;21.35;;
23868;SDS011;12115;47.128;15.422;2022-12-18T16:37:17;38.08;;;23.25;;
23868;SDS011;12115;47.128;15.422;2022-12-18T16:40:01;43.38;;;24.50;;
23868;SDS011;12115;47.128;15.422;2022-12-18T16:42:44;32.38;;;17.70;;
23868;SDS011;12115;47.128;15.422;2022-12-18T16:45:17;49.42;;;27.70;;
23868;SDS011;12115;47.128;15.422;2022-12-18T16:47:49;48.92;;;25.55;;
23868;SDS011;12115;47.128;15.422;2022-12-18T16:50:18;54.00;;;26.02;;
23868;SDS011;12115;47.128;15.422;2022-12-18T16:52:49;52.75;;;26.08;;
23868;SDS011;12115;47.128;15.422;2022-12-18T16:55:19;55.08;;;26.25;;
23868;SDS011;12115;47.128;15.422;2022-12-18T16:57:58;161.80;;;82.80;;
23868;SDS011;12115;47.128;15.422;2022-12-18T17:00:41;55.85;;;30.08;;
23868;SDS011;12115;47.128;15.422;2022-12-18T17:03:12;45.90;;;26.98;;
23868;SDS011;12115;47.128;15.422;2022-12-18T17:05:44;37.47;;;22.55;;
23868;SDS011;12115;47.128;15.422;2022-12-18T17:08:19;55.10;;;27.23;;
23868;SDS011;12115;47.128;15.422;2022-12-18T17:11:05;56.75;;;27.33;;
23868;SDS011;12115;47.128;15.422;2022-12-18T17:13:34;50.25;;;26.30;;
23868;SDS011;12115;47.128;15.422;2022-12-18T17:16:08;48.63;;;25.70;;
23868;SDS011;12115;47.128;15.422;2022-12-18T17:18:41;41.97;;;23.77;;
23868;SDS011;12115;47.128;15.422;2022-12-18T17:21:18;32.25;;;20.95;;
23868;SDS011;12115;47.128;15.422;2022-12-18T17:24:01;36.67;;;21.90;;
23868;SDS011;12115;47.128;15.422;2022-12-18T17:26:38;38.28;;;22.70;;
23868;SDS011;12115;47.128;15.422;2022-12-18T17:29:13;35.72;;;21.00;;
23868;SDS011;12115;47.128;15.422;2022-12-18T17:31:49;39.78;;;23.13;;
23868;SDS011;12115;47.128;15.422;2022-12-18T17:34:27;38.20;;;24.13;;
23868;SDS011;12115;47.128;15.422;2022-12-18T17:37:01;40.63;;;24.15;;
23868;SDS011;12115;47.128;15.422;2022-12-18T17:39:42;37.10;;;21.98;;
23868;SDS011;12115;47.128;15.422;2022-12-18T17:42:21;38.70;;;22.10;;
23868;SDS011;12115;47.128;15.422;2022-12-18T17:45:03;44.65;;;23.52;;
23868;SDS011;12115;47.128;15.422;2022-12-18T17:47:39;37.40;;;20.60;;
23868;SDS011;12115;47.128;15.422;2022-12-18T17:50:14;38.15;;;22.85;;
23868;SDS011;12115;47.128;15.422;2022-12-18T17:52:51;37.92;;;24.23;;
23868;SDS011;12115;47.128;15.422;2022-12-18T17:55:28;37.55;;;21.88;;
23868;SDS011;12115;47.128;15.422;2022-12-18T17:58:03;35.33;;;20.85;;
23868;SDS011;12115;47.128;15.422;2022-12-18T18:00:42;36.70;;;21.63;;